createdAt,value
2023-04-04T00:00:40.312Z,10.90
2023-04-04T00:03:09.151Z,11.10
2023-04-04T00:05:37.724Z,11.10
2023-04-04T00:08:06.446Z,11.00
2023-04-04T00:10:36.323Z,10.90
2023-04-04T00:13:05.778Z,10.90
2023-04-04T00:15:36.630Z,10.90
2023-04-04T00:18:05.141Z,11.00
2023-04-04T00:20:33.667Z,11.00
2023-04-04T00:23:02.185Z,10.90
2023-04-04T00:25:30.610Z,10.80
2023-04-04T00:28:01.698Z,10.80
2023-04-04T00:30:30.391Z,10.70
2023-04-04T00:32:59.069Z,10.70
2023-04-04T00:35:27.506Z,10.70
2023-04-04T00:37:56.439Z,10.90
2023-04-04T00:40:24.894Z,10.70
2023-04-04T00:42:54.310Z,10.70
2023-04-04T00:45:24.413Z,10.80
2023-04-04T00:47:53.237Z,10.90
2023-04-04T00:50:21.852Z,10.90
2023-04-04T00:52:50.551Z,10.90
2023-04-04T00:55:19.245Z,10.90
2023-04-04T00:57:48.091Z,11.10
2023-04-04T01:00:16.953Z,11.10
2023-04-04T01:02:46.885Z,10.90
2023-04-04T01:05:15.944Z,10.90
2023-04-04T01:07:44.383Z,10.70
2023-04-04T01:10:13.335Z,10.70
2023-04-04T01:12:42.898Z,10.80
2023-04-04T01:15:11.780Z,10.60
2023-04-04T01:17:41.582Z,10.60
2023-04-04T01:20:13.428Z,10.60
2023-04-04T01:22:42.118Z,10.50
2023-04-04T01:25:10.773Z,10.50
2023-04-04T01:27:40.728Z,10.60
2023-04-04T01:30:10.191Z,10.70
2023-04-04T01:32:42.405Z,10.50
2023-04-04T01:35:14.806Z,10.60
2023-04-04T01:37:45.772Z,10.70
2023-04-04T01:40:25.257Z,10.80
2023-04-04T01:42:55.445Z,10.70
2023-04-04T01:45:24.455Z,10.60
2023-04-04T01:47:53.243Z,10.60
2023-04-04T01:50:21.817Z,10.50
2023-04-04T01:52:50.303Z,10.50
2023-04-04T01:55:18.866Z,10.50
2023-04-04T01:57:47.412Z,10.60
2023-04-04T02:00:17.648Z,10.70
2023-04-04T02:02:46.336Z,10.60
2023-04-04T02:05:15.018Z,10.50
2023-04-04T02:07:43.464Z,10.50
2023-04-04T02:10:12.120Z,10.50
2023-04-04T02:12:41.083Z,10.50
2023-04-04T02:15:10.028Z,10.40
2023-04-04T02:17:40.055Z,10.50
2023-04-04T02:20:10.743Z,10.50
2023-04-04T02:22:39.095Z,10.40
2023-04-04T02:25:07.753Z,10.40
2023-04-04T02:27:36.334Z,10.40
2023-04-04T02:30:04.869Z,10.30
2023-04-04T02:32:33.413Z,10.30
2023-04-04T02:35:04.408Z,10.40
2023-04-04T02:37:32.893Z,10.40
2023-04-04T02:40:01.344Z,10.50
2023-04-04T02:42:29.907Z,10.40
2023-04-04T02:44:58.307Z,10.40
2023-04-04T02:47:26.817Z,10.30
2023-04-04T02:49:55.415Z,10.30
2023-04-04T02:52:25.228Z,10.30
2023-04-04T02:54:53.696Z,10.20
2023-04-04T02:57:22.555Z,10.20
2023-04-04T02:59:51.097Z,10.20
2023-04-04T03:02:19.785Z,10.20
2023-04-04T03:04:48.440Z,10.20
2023-04-04T03:07:17.023Z,10.10
2023-04-04T03:09:46.956Z,10.20
2023-04-04T03:12:15.506Z,10.20
2023-04-04T03:14:43.976Z,10.20
2023-04-04T03:17:14.973Z,10.10
2023-04-04T03:19:43.381Z,10.20
2023-04-04T03:22:12.112Z,10.10
2023-04-04T03:24:40.594Z,10.10
2023-04-04T03:27:11.374Z,10.10
2023-04-04T03:29:39.972Z,10.00
2023-04-04T03:32:08.533Z,9.90
2023-04-04T03:34:37.077Z,10.00
2023-04-04T03:37:05.632Z,9.90
2023-04-04T03:39:34.152Z,10.00
2023-04-04T03:42:02.729Z,9.90
2023-04-04T03:44:32.720Z,9.90
2023-04-04T03:47:01.101Z,9.80
2023-04-04T03:49:30.092Z,9.80
2023-04-04T03:51:58.645Z,9.90
2023-04-04T03:54:29.042Z,9.90
2023-04-04T03:56:58.119Z,9.80
2023-04-04T03:59:26.628Z,9.80
2023-04-04T04:01:56.942Z,9.90
2023-04-04T04:04:25.598Z,9.80
2023-04-04T04:06:54.168Z,9.90
2023-04-04T04:09:22.596Z,9.80
2023-04-04T04:11:51.093Z,9.80
2023-04-04T04:14:19.617Z,9.80
2023-04-04T04:16:48.160Z,9.80
2023-04-04T04:19:18.094Z,9.80
2023-04-04T04:21:46.499Z,9.70
2023-04-04T04:24:14.932Z,9.80
2023-04-04T04:26:43.568Z,9.70
2023-04-04T04:29:12.484Z,9.70
2023-04-04T04:31:41.786Z,9.60
2023-04-04T04:34:10.559Z,9.60
2023-04-04T04:36:40.460Z,9.60
2023-04-04T04:39:09.014Z,9.60
2023-04-04T04:41:38.634Z,9.60
2023-04-04T04:44:07.324Z,9.60
2023-04-04T04:46:35.911Z,9.60
2023-04-04T04:49:05.335Z,9.70
2023-04-04T04:51:34.460Z,9.70
2023-04-04T04:54:04.487Z,9.70
2023-04-04T04:56:33.112Z,9.70
2023-04-04T04:59:01.753Z,9.70
2023-04-04T05:01:30.448Z,9.70
2023-04-04T05:03:59.309Z,9.70
2023-04-04T05:06:27.753Z,9.70
2023-04-04T05:08:56.181Z,9.70
2023-04-04T05:11:26.266Z,9.70
2023-04-04T05:13:54.786Z,9.60
2023-04-04T05:16:23.367Z,9.60
2023-04-04T05:18:51.900Z,9.90
2023-04-04T05:21:20.324Z,9.80
2023-04-04T05:23:48.815Z,9.70
2023-04-04T05:26:17.296Z,9.70
2023-04-04T05:28:47.052Z,9.80
2023-04-04T05:31:15.476Z,9.80
2023-04-04T05:33:43.934Z,9.80
2023-04-04T05:36:13.281Z,9.80
2023-04-04T05:38:41.882Z,9.80
2023-04-04T05:41:10.297Z,9.90
2023-04-04T05:43:38.743Z,9.90
2023-04-04T05:46:08.864Z,9.90
2023-04-04T05:48:37.317Z,9.70
2023-04-04T05:51:06.054Z,9.80
2023-04-04T05:53:34.957Z,9.90
2023-04-04T05:56:03.583Z,10.00
2023-04-04T05:58:32.050Z,10.20
2023-04-04T06:01:00.485Z,10.20
2023-04-04T06:03:30.620Z,10.10
2023-04-04T06:05:59.233Z,10.10
2023-04-04T06:08:27.764Z,10.20
2023-04-04T06:10:56.322Z,10.20
2023-04-04T06:13:24.830Z,10.20
2023-04-04T06:15:53.281Z,10.20
2023-04-04T06:18:21.744Z,10.20
2023-04-04T06:20:51.640Z,10.10
2023-04-04T06:23:20.167Z,10.30
2023-04-04T06:25:48.983Z,10.40
2023-04-04T06:28:18.177Z,10.50
2023-04-04T06:30:46.930Z,10.40
2023-04-04T06:33:15.307Z,10.40
2023-04-04T06:35:43.756Z,10.50
2023-04-04T06:38:13.890Z,10.60
2023-04-04T06:40:42.611Z,10.50
2023-04-04T06:43:11.426Z,10.40
2023-04-04T06:45:39.949Z,10.30
2023-04-04T06:48:08.402Z,10.40
2023-04-04T06:50:37.789Z,10.30
2023-04-04T06:53:07.374Z,10.30
2023-04-04T06:55:37.192Z,10.10
2023-04-04T06:58:05.607Z,10.20
2023-04-04T07:00:33.957Z,10.20
2023-04-04T07:03:02.691Z,10.30
2023-04-04T07:05:32.256Z,10.40
2023-04-04T07:08:00.767Z,10.40
2023-04-04T07:10:29.395Z,10.50
2023-04-04T07:12:59.142Z,10.50
2023-04-04T07:15:28.424Z,10.60
2023-04-04T07:17:57.017Z,10.60
2023-04-04T07:20:26.990Z,10.70
2023-04-04T07:22:55.702Z,10.70
2023-04-04T07:25:24.228Z,10.60
2023-04-04T07:27:57.319Z,10.60
2023-04-04T07:30:35.879Z,10.60
2023-04-04T07:33:04.640Z,10.60
2023-04-04T07:35:33.127Z,10.60
2023-04-04T07:38:01.708Z,10.70
2023-04-04T07:40:30.188Z,10.70
2023-04-04T07:42:58.669Z,10.70
2023-04-04T07:45:27.191Z,10.90
2023-04-04T07:47:57.189Z,10.90
2023-04-04T07:50:26.278Z,11.00
2023-04-04T07:52:56.134Z,11.10
2023-04-04T07:55:25.409Z,11.10
2023-04-04T07:57:54.673Z,11.20
2023-04-04T08:00:25.935Z,11.30
2023-04-04T08:02:54.859Z,11.20
2023-04-04T08:05:24.854Z,11.20
2023-04-04T08:07:53.295Z,11.30
2023-04-04T08:10:22.079Z,11.40
2023-04-04T08:12:50.484Z,11.40
2023-04-04T08:15:19.197Z,11.40
2023-04-04T08:17:47.645Z,11.40
2023-04-04T08:20:16.178Z,11.00
2023-04-04T08:22:46.133Z,10.80
2023-04-04T08:25:14.662Z,10.60
2023-04-04T08:27:45.082Z,10.60
2023-04-04T08:30:14.358Z,10.90
2023-04-04T08:32:44.408Z,11.10
2023-04-04T08:35:12.927Z,11.20
2023-04-04T08:37:47.095Z,11.60
2023-04-04T08:40:15.962Z,11.60
2023-04-04T08:42:46.182Z,11.50
2023-04-04T08:45:18.623Z,11.40
2023-04-04T08:47:50.304Z,11.70
2023-04-04T08:50:20.484Z,11.80
2023-04-04T08:52:50.570Z,11.70
2023-04-04T08:55:20.212Z,11.80
2023-04-04T08:57:49.404Z,11.70
2023-04-04T09:00:21.506Z,11.80
2023-04-04T09:02:54.210Z,11.70
2023-04-04T09:05:22.874Z,11.80
2023-04-04T09:07:53.195Z,11.60
2023-04-04T09:10:23.527Z,11.50
2023-04-04T09:12:55.434Z,11.60
2023-04-04T09:15:25.949Z,11.70
2023-04-04T09:17:54.537Z,11.80
2023-04-04T09:20:36.010Z,12.20
2023-04-04T09:23:08.269Z,12.10
2023-04-04T09:25:37.844Z,12.30
2023-04-04T09:28:06.336Z,12.50
2023-04-04T09:30:35.782Z,12.30
2023-04-04T09:33:05.890Z,12.10
2023-04-04T09:35:35.592Z,11.80
2023-04-04T09:38:04.095Z,11.60
2023-04-04T09:40:35.579Z,11.30
2023-04-04T09:43:04.783Z,11.30
2023-04-04T09:45:33.610Z,11.20
2023-04-04T09:48:02.586Z,11.20
2023-04-04T09:50:33.634Z,11.30
2023-04-04T09:53:02.009Z,11.60
2023-04-04T09:55:36.711Z,11.70
2023-04-04T09:58:13.141Z,11.60
2023-04-04T10:00:42.482Z,11.40
2023-04-04T10:03:12.383Z,11.20
2023-04-04T10:05:40.775Z,11.30
2023-04-04T10:08:16.201Z,11.60
2023-04-04T10:11:02.548Z,11.60
2023-04-04T10:13:36.828Z,11.40
2023-04-04T10:16:05.586Z,11.40
2023-04-04T10:18:34.838Z,11.30
2023-04-04T10:21:14.711Z,11.10
2023-04-04T10:23:46.578Z,11.20
2023-04-04T10:26:16.678Z,11.10
2023-04-04T10:28:45.621Z,11.00
2023-04-04T10:31:18.698Z,11.10
2023-04-04T10:33:50.844Z,11.10
2023-04-04T10:36:24.936Z,11.10
2023-04-04T10:38:59.779Z,11.10
2023-04-04T10:41:32.781Z,11.30
2023-04-04T10:44:05.666Z,11.50
2023-04-04T10:46:34.969Z,11.60
2023-04-04T10:49:03.797Z,11.50
2023-04-04T10:51:37.061Z,11.30
2023-04-04T10:54:11.092Z,11.20
2023-04-04T10:56:41.047Z,11.20
2023-04-04T10:59:13.513Z,11.10
2023-04-04T11:01:48.620Z,11.20
2023-04-04T11:04:20.317Z,10.80
2023-04-04T11:07:10.487Z,11.00
2023-04-04T11:09:55.113Z,10.80
2023-04-04T11:12:28.368Z,10.90
2023-04-04T11:14:58.245Z,10.70
2023-04-04T11:17:50.570Z,10.80
2023-04-04T11:20:20.136Z,11.00
2023-04-04T11:22:50.715Z,10.90
2023-04-04T11:25:32.559Z,10.80
2023-04-04T11:28:05.831Z,10.80
2023-04-04T11:30:38.616Z,10.80
2023-04-04T11:33:08.332Z,11.00
2023-04-04T11:35:39.833Z,10.90
2023-04-04T11:38:14.766Z,10.80
2023-04-04T11:40:44.027Z,10.90
2023-04-04T11:43:14.408Z,10.80
2023-04-04T11:45:45.911Z,10.90
2023-04-04T11:48:17.027Z,11.10
2023-04-04T11:50:49.747Z,11.00
2023-04-04T11:53:18.284Z,11.10
2023-04-04T11:55:50.411Z,11.30
2023-04-04T11:58:20.617Z,11.00
2023-04-04T12:00:50.668Z,11.00
2023-04-04T12:03:19.260Z,11.10
2023-04-04T12:05:48.679Z,11.30
2023-04-04T12:08:18.194Z,11.20
2023-04-04T12:10:46.842Z,11.20
2023-04-04T12:13:15.559Z,11.20
2023-04-04T12:15:45.564Z,11.10
2023-04-04T12:18:21.762Z,11.00
2023-04-04T12:20:52.190Z,10.90
2023-04-04T12:23:21.032Z,10.90
2023-04-04T12:25:54.219Z,11.10
2023-04-04T12:28:23.045Z,11.10
2023-04-04T12:30:53.273Z,11.00
2023-04-04T12:33:22.381Z,10.90
2023-04-04T12:35:54.973Z,11.00
2023-04-04T12:38:23.601Z,11.10
2023-04-04T12:40:52.451Z,11.00
2023-04-04T12:43:22.927Z,11.20
2023-04-04T12:45:53.407Z,11.20
2023-04-04T12:48:27.671Z,11.30
2023-04-04T12:50:56.931Z,11.00
2023-04-04T12:53:29.718Z,10.90
2023-04-04T12:56:04.973Z,10.70
2023-04-04T12:58:36.215Z,10.80
2023-04-04T13:01:08.489Z,10.90
2023-04-04T13:03:38.103Z,11.10
2023-04-04T13:06:12.578Z,11.30
2023-04-04T13:08:50.016Z,11.20
2023-04-04T13:11:18.825Z,11.10
2023-04-04T13:16:31.983Z,11.00
2023-04-04T13:19:01.018Z,10.90
2023-04-04T13:21:29.606Z,11.00
2023-04-04T13:23:58.179Z,10.90
2023-04-04T13:26:27.861Z,10.90
2023-04-04T13:28:56.587Z,10.90
2023-04-04T13:31:25.192Z,10.90
2023-04-04T13:33:55.037Z,10.50
2023-04-04T13:36:23.519Z,10.50
2023-04-04T13:38:52.303Z,10.30
2023-04-04T13:41:20.980Z,10.40
2023-04-04T13:43:49.413Z,10.50
2023-04-04T13:46:17.955Z,10.60
2023-04-04T13:48:46.394Z,10.50
2023-04-04T13:51:16.597Z,10.60
2023-04-04T13:53:45.251Z,10.60
2023-04-04T13:56:18.474Z,10.60
2023-04-04T13:58:47.373Z,10.60
2023-04-04T14:01:16.071Z,10.60
2023-04-04T14:03:44.830Z,10.50
2023-04-04T14:06:13.624Z,10.50
2023-04-04T14:08:43.543Z,10.30
2023-04-04T14:11:11.994Z,10.30
2023-04-04T14:13:40.566Z,10.30
2023-04-04T14:16:09.333Z,10.30
2023-04-04T14:18:37.833Z,10.40
2023-04-04T14:21:07.311Z,10.50
2023-04-04T14:23:35.753Z,10.40
2023-04-04T14:26:05.693Z,10.40
2023-04-04T14:28:34.257Z,10.40
2023-04-04T14:31:02.792Z,10.30
2023-04-04T14:33:31.381Z,10.30
2023-04-04T14:35:59.864Z,10.40
2023-04-04T14:38:28.237Z,10.50
2023-04-04T14:40:57.004Z,10.50
2023-04-04T14:43:26.802Z,10.60
2023-04-04T14:45:55.564Z,10.50
2023-04-04T14:48:24.022Z,10.50
2023-04-04T14:50:53.706Z,10.70
2023-04-04T14:53:22.853Z,10.50
2023-04-04T14:55:52.823Z,10.30
2023-04-04T14:58:21.367Z,10.20
2023-04-04T15:00:52.037Z,10.10
2023-04-04T15:03:20.651Z,10.30
2023-04-04T15:05:49.512Z,10.20
2023-04-04T15:08:17.950Z,10.30
2023-04-04T15:10:46.379Z,10.10
2023-04-04T15:13:15.002Z,10.00
2023-04-04T15:15:43.600Z,9.90
2023-04-04T15:18:13.469Z,9.90
2023-04-04T15:20:42.267Z,9.90
2023-04-04T15:23:11.030Z,9.90
2023-04-04T15:25:39.441Z,9.80
2023-04-04T15:28:07.931Z,9.80
2023-04-04T15:30:36.407Z,9.60
2023-04-04T15:33:04.961Z,9.60
2023-04-04T15:35:34.989Z,9.60
2023-04-04T15:38:03.428Z,9.70
2023-04-04T15:40:31.925Z,9.80
2023-04-04T15:43:00.400Z,9.70
2023-04-04T15:45:28.766Z,9.60
2023-04-04T15:47:57.241Z,9.70
2023-04-04T15:50:25.698Z,9.70
2023-04-04T15:52:55.550Z,9.70
2023-04-04T15:55:24.014Z,9.80
2023-04-04T15:57:52.476Z,9.70
2023-04-04T16:00:21.065Z,9.70
2023-04-04T16:02:49.626Z,9.70
2023-04-04T16:05:18.208Z,9.70
2023-04-04T16:07:46.806Z,9.70
2023-04-04T16:10:16.662Z,9.70
2023-04-04T16:12:45.078Z,9.80
2023-04-04T16:15:13.794Z,9.80
2023-04-04T16:17:42.623Z,9.80
2023-04-04T16:20:12.090Z,9.70
2023-04-04T16:22:40.617Z,9.60
2023-04-04T16:25:09.655Z,9.70
2023-04-04T16:27:39.465Z,9.70
2023-04-04T16:30:08.580Z,9.70
2023-04-04T16:32:37.501Z,9.80
2023-04-04T16:35:06.356Z,9.80
2023-04-04T16:37:34.967Z,9.90
2023-04-04T16:40:03.384Z,9.90
2023-04-04T16:42:31.942Z,9.70
2023-04-04T16:45:01.912Z,9.70
2023-04-04T16:47:30.771Z,9.80
2023-04-04T16:49:59.997Z,9.80
2023-04-04T16:52:28.446Z,9.70
2023-04-04T16:54:56.982Z,9.80
2023-04-04T16:57:25.542Z,9.70
2023-04-04T16:59:54.139Z,9.70
2023-04-04T17:02:23.978Z,9.90
2023-04-04T17:04:52.492Z,9.90
2023-04-04T17:07:21.220Z,9.90
2023-04-04T17:09:51.521Z,9.80
2023-04-04T17:12:20.296Z,9.80
2023-04-04T17:14:48.793Z,9.80
2023-04-04T17:17:17.429Z,9.90
2023-04-04T17:19:47.433Z,10.00
2023-04-04T17:22:16.115Z,9.90
2023-04-04T17:24:44.633Z,9.80
2023-04-04T17:27:13.080Z,9.90
2023-04-04T17:29:41.419Z,9.90
2023-04-04T17:32:10.113Z,10.00
2023-04-04T17:34:38.553Z,10.10
2023-04-04T17:37:11.243Z,9.90
2023-04-04T17:39:39.984Z,9.80
2023-04-04T17:42:09.197Z,9.70
2023-04-04T17:44:37.618Z,9.80
2023-04-04T17:47:06.236Z,9.90
2023-04-04T17:49:35.183Z,9.80
2023-04-04T17:52:04.498Z,9.70
2023-04-04T17:54:34.337Z,9.70
2023-04-04T17:57:03.569Z,9.70
2023-04-04T17:59:32.246Z,9.70
2023-04-04T18:02:00.936Z,9.80
2023-04-04T18:04:29.404Z,9.90
2023-04-04T18:06:58.068Z,9.90
2023-04-04T18:09:26.721Z,9.90
2023-04-04T18:11:56.722Z,9.80
2023-04-04T18:14:25.095Z,9.80
2023-04-04T18:16:53.510Z,9.80
2023-04-04T18:19:22.031Z,9.70
2023-04-04T18:21:51.339Z,9.70
2023-04-04T18:24:19.858Z,9.80
2023-04-04T18:26:48.243Z,9.80
2023-04-04T18:29:18.038Z,9.70
2023-04-04T18:31:46.624Z,9.80
2023-04-04T18:34:16.615Z,9.90
2023-04-04T18:36:47.342Z,9.80
2023-04-04T18:39:18.688Z,9.80
2023-04-04T18:41:47.236Z,9.70
2023-04-04T18:44:15.683Z,9.70
2023-04-04T18:46:45.634Z,9.80
2023-04-04T18:49:14.117Z,9.80
2023-04-04T18:51:42.663Z,9.80
2023-04-04T18:54:11.193Z,9.80
2023-04-04T18:56:39.522Z,9.80
2023-04-04T18:59:08.050Z,9.90
2023-04-04T19:01:37.025Z,10.00
2023-04-04T19:04:08.840Z,10.10
2023-04-04T19:06:37.634Z,10.20
2023-04-04T19:09:06.212Z,10.30
2023-04-04T19:11:34.685Z,10.20
2023-04-04T19:14:03.243Z,10.10
2023-04-04T19:16:31.790Z,10.10
2023-04-04T19:19:00.443Z,10.00
2023-04-04T19:21:30.564Z,10.10
2023-04-04T19:23:59.103Z,10.20
2023-04-04T19:26:27.587Z,10.30
2023-04-04T19:28:56.070Z,10.10
2023-04-04T19:31:25.285Z,10.00
2023-04-04T19:33:55.272Z,10.10
2023-04-04T19:36:24.679Z,10.30
2023-04-04T19:38:55.174Z,10.30
2023-04-04T19:41:31.053Z,10.40
2023-04-04T19:43:59.517Z,10.40
2023-04-04T19:46:28.527Z,10.50
2023-04-04T19:48:57.185Z,10.50
2023-04-04T19:51:42.684Z,10.50
2023-04-04T19:54:16.231Z,10.50
2023-04-04T19:56:46.518Z,10.50
2023-04-04T19:59:33.471Z,10.40
2023-04-04T20:02:02.076Z,10.50
2023-04-04T20:04:30.733Z,10.50
2023-04-04T20:06:59.150Z,10.60
2023-04-04T20:09:34.892Z,10.60
2023-04-04T20:12:03.553Z,10.70
2023-04-04T20:14:32.002Z,10.60
2023-04-04T20:17:00.496Z,10.70
2023-04-04T20:19:29.813Z,10.70
2023-04-04T20:21:58.450Z,10.80
2023-04-04T20:24:28.469Z,10.70
2023-04-04T20:26:59.800Z,10.60
2023-04-04T20:29:29.288Z,10.50
2023-04-04T20:31:58.734Z,10.40
2023-04-04T20:34:33.029Z,10.50
2023-04-04T20:37:05.074Z,10.40
2023-04-04T20:39:41.389Z,10.30
2023-04-04T20:42:18.594Z,10.40
2023-04-04T20:44:47.206Z,10.40
2023-04-04T20:47:31.668Z,10.30
2023-04-04T20:50:00.226Z,10.30
2023-04-04T20:52:28.632Z,10.30
2023-04-04T20:54:57.180Z,10.30
2023-04-04T20:57:27.256Z,10.30
2023-04-04T20:59:55.694Z,10.30
2023-04-04T21:02:24.351Z,10.10
2023-04-04T21:04:53.049Z,10.10
2023-04-04T21:07:39.053Z,10.20
2023-04-04T21:10:21.373Z,10.20
2023-04-04T21:12:51.285Z,10.20
2023-04-04T21:15:26.446Z,10.10
2023-04-04T21:17:55.233Z,10.10
2023-04-04T21:20:38.722Z,10.10
2023-04-04T21:23:07.934Z,10.10
2023-04-04T21:25:44.240Z,10.10
2023-04-04T21:28:14.266Z,10.20
2023-04-04T21:30:46.722Z,10.10
2023-04-04T21:33:17.294Z,10.10
2023-04-04T21:35:46.714Z,10.10
2023-04-04T21:38:24.792Z,10.10
2023-04-04T21:40:53.327Z,10.10
2023-04-04T21:43:23.223Z,10.10
2023-04-04T21:45:51.668Z,10.20
2023-04-04T21:48:20.169Z,10.20
2023-04-04T21:50:48.676Z,10.20
2023-04-04T21:53:17.917Z,10.10
2023-04-04T21:55:46.319Z,10.10
2023-04-04T21:58:14.888Z,10.20
2023-04-04T22:00:44.849Z,10.20
2023-04-04T22:03:13.385Z,10.20
2023-04-04T22:05:41.871Z,10.20
2023-04-04T22:08:10.437Z,10.20
2023-04-04T22:10:50.228Z,10.10
2023-04-04T22:13:18.848Z,10.20
2023-04-04T22:15:49.300Z,10.30
2023-04-04T22:18:18.206Z,10.30
2023-04-04T22:20:47.244Z,10.20
2023-04-04T22:23:17.744Z,10.10
2023-04-04T22:25:46.288Z,10.00
2023-04-04T22:28:18.171Z,10.00
2023-04-04T22:30:48.131Z,10.00
2023-04-04T22:33:16.632Z,10.00
2023-04-04T22:35:45.758Z,10.00
2023-04-04T22:38:14.628Z,10.00
2023-04-04T22:40:43.334Z,10.00
2023-04-04T22:43:11.897Z,10.00
2023-04-04T22:45:40.463Z,10.10
2023-04-04T22:48:10.357Z,10.10
2023-04-04T22:50:39.016Z,10.10
2023-04-04T22:53:12.892Z,10.00
2023-04-04T22:55:41.798Z,10.10
2023-04-04T22:58:10.265Z,10.00
2023-04-04T23:00:39.005Z,10.00
2023-04-04T23:03:07.815Z,9.90
2023-04-04T23:05:37.849Z,9.90
2023-04-04T23:08:06.498Z,10.00
2023-04-04T23:10:35.042Z,10.00
2023-04-04T23:13:03.497Z,10.00
2023-04-04T23:15:35.745Z,10.00
2023-04-04T23:18:04.509Z,10.00
2023-04-04T23:20:33.308Z,10.00
2023-04-04T23:23:03.224Z,9.90
2023-04-04T23:25:31.591Z,9.90
2023-04-04T23:28:00.089Z,9.90
2023-04-04T23:30:29.091Z,10.00
2023-04-04T23:32:57.779Z,10.00
2023-04-04T23:35:26.466Z,10.10
2023-04-04T23:37:54.972Z,10.10
2023-04-04T23:40:24.742Z,10.00
2023-04-04T23:42:53.252Z,10.10
2023-04-04T23:45:22.418Z,10.10
2023-04-04T23:47:50.991Z,10.00
2023-04-04T23:50:19.473Z,10.00
2023-04-04T23:52:47.949Z,9.90
2023-04-04T23:55:17.204Z,9.90
2023-04-04T23:57:47.092Z,10.00
